sensor_id;sensor_type;location;lat;lon;timestamp;pressure;altitude;pressure_sealevel;temperature;humidity
40315;BME280;26021;45.640;11.302;2022-12-24T00:00:21;98589.94;;;6.58;100.00
40315;BME280;26021;45.640;11.302;2022-12-24T00:02:48;98600.34;;;6.51;100.00
40315;BME280;26021;45.640;11.302;2022-12-24T00:05:13;98613.94;;;6.48;100.00
40315;BME280;26021;45.640;11.302;2022-12-24T00:07:39;98613.38;;;6.88;100.00
40315;BME280;26021;45.640;11.302;2022-12-24T00:10:05;98612.28;;;6.73;100.00
40315;BME280;26021;45.640;11.302;2022-12-24T00:12:31;98568.34;;;6.61;100.00
40315;BME280;26021;45.640;11.302;2022-12-24T00:14:56;98581.75;;;6.51;100.00
40315;BME280;26021;45.640;11.302;2022-12-24T00:17:22;98614.84;;;6.57;100.00
40315;BME280;26021;45.640;11.302;2022-12-24T00:19:47;98629.91;;;6.74;100.00
40315;BME280;26021;45.640;11.302;2022-12-24T00:22:13;98635.44;;;6.81;100.00
40315;BME280;26021;45.640;11.302;2022-12-24T00:24:39;98646.22;;;6.79;100.00
40315;BME280;26021;45.640;11.302;2022-12-24T00:27:04;98647.09;;;6.88;100.00
40315;BME280;26021;45.640;11.302;2022-12-24T00:29:30;98627.44;;;6.81;100.00
40315;BME280;26021;45.640;11.302;2022-12-24T00:31:57;98650.91;;;6.85;100.00
40315;BME280;26021;45.640;11.302;2022-12-24T00:34:23;98645.84;;;6.74;100.00
40315;BME280;26021;45.640;11.302;2022-12-24T00:36:49;98634.78;;;6.87;100.00
40315;BME280;26021;45.640;11.302;2022-12-24T00:39:15;98558.91;;;6.32;100.00
40315;BME280;26021;45.640;11.302;2022-12-24T00:41:40;98538.53;;;6.41;100.00
40315;BME280;26021;45.640;11.302;2022-12-24T00:44:06;98618.25;;;7.01;100.00
40315;BME280;26021;45.640;11.302;2022-12-24T00:46:39;98615.03;;;6.89;100.00
40315;BME280;26021;45.640;11.302;2022-12-24T00:49:06;98617.53;;;6.91;100.00
40315;BME280;26021;45.640;11.302;2022-12-24T00:51:33;98609.09;;;7.04;100.00
40315;BME280;26021;45.640;11.302;2022-12-24T00:53:58;98550.06;;;6.58;100.00
40315;BME280;26021;45.640;11.302;2022-12-24T00:56:24;98587.53;;;6.73;100.00
40315;BME280;26021;45.640;11.302;2022-12-24T00:58:50;98592.38;;;6.77;100.00
40315;BME280;26021;45.640;11.302;2022-12-24T01:01:16;98593.56;;;6.83;100.00
40315;BME280;26021;45.640;11.302;2022-12-24T01:03:42;98551.72;;;6.85;100.00
40315;BME280;26021;45.640;11.302;2022-12-24T01:06:13;98584.19;;;7.05;100.00
40315;BME280;26021;45.640;11.302;2022-12-24T01:08:39;98591.25;;;6.88;100.00
40315;BME280;26021;45.640;11.302;2022-12-24T01:11:06;98586.38;;;6.75;100.00
40315;BME280;26021;45.640;11.302;2022-12-24T01:13:32;98581.75;;;6.77;100.00
40315;BME280;26021;45.640;11.302;2022-12-24T01:15:58;98530.56;;;6.41;100.00
40315;BME280;26021;45.640;11.302;2022-12-24T01:18:23;98603.09;;;6.67;100.00
40315;BME280;26021;45.640;11.302;2022-12-24T01:21:00;98575.09;;;6.47;100.00
40315;BME280;26021;45.640;11.302;2022-12-24T01:23:27;98590.66;;;6.68;100.00
40315;BME280;26021;45.640;11.302;2022-12-24T01:25:53;98581.56;;;6.71;100.00
40315;BME280;26021;45.640;11.302;2022-12-24T01:28:20;98507.31;;;6.09;100.00
40315;BME280;26021;45.640;11.302;2022-12-24T01:30:46;98574.94;;;6.49;100.00
40315;BME280;26021;45.640;11.302;2022-12-24T01:33:12;98577.50;;;6.66;100.00
40315;BME280;26021;45.640;11.302;2022-12-24T01:35:41;98594.94;;;6.61;100.00
40315;BME280;26021;45.640;11.302;2022-12-24T01:38:08;98609.50;;;6.57;100.00
40315;BME280;26021;45.640;11.302;2022-12-24T01:40:36;98545.19;;;6.45;100.00
40315;BME280;26021;45.640;11.302;2022-12-24T01:43:21;98595.84;;;6.69;100.00
40315;BME280;26021;45.640;11.302;2022-12-24T01:45:53;98632.22;;;6.69;100.00
40315;BME280;26021;45.640;11.302;2022-12-24T01:50:45;98470.47;;;5.45;100.00
40315;BME280;26021;45.640;11.302;2022-12-24T01:53:11;98665.66;;;6.80;100.00
40315;BME280;26021;45.640;11.302;2022-12-24T01:55:39;98572.28;;;6.49;100.00
40315;BME280;26021;45.640;11.302;2022-12-24T01:58:05;98595.66;;;6.45;100.00
40315;BME280;26021;45.640;11.302;2022-12-24T02:00:32;98657.00;;;6.78;100.00
40315;BME280;26021;45.640;11.302;2022-12-24T02:02:58;98633.47;;;6.65;100.00
40315;BME280;26021;45.640;11.302;2022-12-24T02:05:35;98667.44;;;6.71;100.00
40315;BME280;26021;45.640;11.302;2022-12-24T02:08:05;98655.69;;;6.56;100.00
40315;BME280;26021;45.640;11.302;2022-12-24T02:10:32;98636.13;;;6.39;100.00
40315;BME280;26021;45.640;11.302;2022-12-24T02:12:58;98656.13;;;6.69;100.00
40315;BME280;26021;45.640;11.302;2022-12-24T02:15:25;98529.16;;;5.85;100.00
40315;BME280;26021;45.640;11.302;2022-12-24T02:26:40;98664.75;;;6.45;100.00
40315;BME280;26021;45.640;11.302;2022-12-24T02:32:11;98661.00;;;6.56;100.00
40315;BME280;26021;45.640;11.302;2022-12-24T02:34:51;98656.31;;;6.50;100.00
40315;BME280;26021;45.640;11.302;2022-12-24T02:39:50;98648.13;;;6.43;100.00
40315;BME280;26021;45.640;11.302;2022-12-24T02:42:20;98648.91;;;6.35;100.00
40315;BME280;26021;45.640;11.302;2022-12-24T02:45:14;98666.81;;;6.33;100.00
40315;BME280;26021;45.640;11.302;2022-12-24T02:47:42;98667.41;;;6.45;100.00
40315;BME280;26021;45.640;11.302;2022-12-24T02:50:10;98638.22;;;6.27;100.00
40315;BME280;26021;45.640;11.302;2022-12-24T02:52:40;98641.75;;;6.36;100.00
40315;BME280;26021;45.640;11.302;2022-12-24T02:55:08;98648.72;;;6.11;100.00
40315;BME280;26021;45.640;11.302;2022-12-24T03:00:07;98631.44;;;6.33;100.00
40315;BME280;26021;45.640;11.302;2022-12-24T03:08:26;98596.03;;;5.89;100.00
40315;BME280;26021;45.640;11.302;2022-12-24T03:11:08;98550.81;;;5.55;100.00
40315;BME280;26021;45.640;11.302;2022-12-24T03:13:35;98620.81;;;6.07;100.00
40315;BME280;26021;45.640;11.302;2022-12-24T03:16:05;98612.69;;;5.91;100.00
40315;BME280;26021;45.640;11.302;2022-12-24T03:18:31;98542.00;;;5.54;100.00
40315;BME280;26021;45.640;11.302;2022-12-24T03:21:05;98607.53;;;5.89;100.00
40315;BME280;26021;45.640;11.302;2022-12-24T03:23:32;98624.59;;;6.04;100.00
40315;BME280;26021;45.640;11.302;2022-12-24T03:25:59;98621.63;;;6.08;100.00
40315;BME280;26021;45.640;11.302;2022-12-24T03:28:26;98557.00;;;5.63;100.00
40315;BME280;26021;45.640;11.302;2022-12-24T03:30:52;98628.22;;;6.21;100.00
40315;BME280;26021;45.640;11.302;2022-12-24T03:33:18;98601.00;;;6.01;100.00
40315;BME280;26021;45.640;11.302;2022-12-24T03:35:44;98572.03;;;5.90;100.00
40315;BME280;26021;45.640;11.302;2022-12-24T03:38:10;98626.94;;;6.08;100.00
40315;BME280;26021;45.640;11.302;2022-12-24T03:40:35;98617.19;;;6.34;100.00
40315;BME280;26021;45.640;11.302;2022-12-24T03:43:00;98647.28;;;6.43;100.00
40315;BME280;26021;45.640;11.302;2022-12-24T03:45:26;98641.50;;;6.47;100.00
40315;BME280;26021;45.640;11.302;2022-12-24T03:47:51;98640.63;;;6.38;100.00
40315;BME280;26021;45.640;11.302;2022-12-24T03:50:17;98652.03;;;6.31;100.00
40315;BME280;26021;45.640;11.302;2022-12-24T03:52:42;98624.81;;;6.11;100.00
40315;BME280;26021;45.640;11.302;2022-12-24T03:55:08;98659.06;;;6.40;100.00
40315;BME280;26021;45.640;11.302;2022-12-24T03:57:34;98635.94;;;6.32;100.00
40315;BME280;26021;45.640;11.302;2022-12-24T03:59:59;98662.81;;;6.29;100.00
40315;BME280;26021;45.640;11.302;2022-12-24T04:02:25;98649.53;;;6.12;100.00
40315;BME280;26021;45.640;11.302;2022-12-24T04:04:50;98642.56;;;6.11;100.00
40315;BME280;26021;45.640;11.302;2022-12-24T04:07:16;98641.28;;;6.15;100.00
40315;BME280;26021;45.640;11.302;2022-12-24T04:09:41;98641.28;;;6.15;100.00
40315;BME280;26021;45.640;11.302;2022-12-24T04:12:07;98649.63;;;6.20;100.00
40315;BME280;26021;45.640;11.302;2022-12-24T04:14:32;98648.75;;;6.37;100.00
40315;BME280;26021;45.640;11.302;2022-12-24T04:16:58;98648.00;;;6.27;100.00
40315;BME280;26021;45.640;11.302;2022-12-24T04:19:23;98641.59;;;6.12;100.00
40315;BME280;26021;45.640;11.302;2022-12-24T04:21:49;98653.19;;;6.11;100.00
40315;BME280;26021;45.640;11.302;2022-12-24T04:24:14;98649.09;;;5.98;100.00
40315;BME280;26021;45.640;11.302;2022-12-24T04:26:40;98436.78;;;4.84;100.00
40315;BME280;26021;45.640;11.302;2022-12-24T04:29:05;98670.94;;;6.10;100.00
40315;BME280;26021;45.640;11.302;2022-12-24T04:31:31;98664.13;;;5.80;100.00
40315;BME280;26021;45.640;11.302;2022-12-24T04:33:56;98675.28;;;5.84;100.00
40315;BME280;26021;45.640;11.302;2022-12-24T04:36:22;98703.72;;;6.19;100.00
40315;BME280;26021;45.640;11.302;2022-12-24T04:38:48;98705.63;;;6.09;100.00
40315;BME280;26021;45.640;11.302;2022-12-24T04:41:19;98693.41;;;5.88;100.00
40315;BME280;26021;45.640;11.302;2022-12-24T04:43:45;98676.19;;;5.74;100.00
40315;BME280;26021;45.640;11.302;2022-12-24T04:46:16;98669.38;;;5.72;100.00
40315;BME280;26021;45.640;11.302;2022-12-24T04:48:44;98618.16;;;5.26;100.00
40315;BME280;26021;45.640;11.302;2022-12-24T04:51:10;98653.66;;;5.61;100.00
40315;BME280;26021;45.640;11.302;2022-12-24T04:53:37;98627.72;;;5.37;100.00
40315;BME280;26021;45.640;11.302;2022-12-24T04:56:06;98653.44;;;5.72;100.00
40315;BME280;26021;45.640;11.302;2022-12-24T04:58:32;98651.16;;;5.77;100.00
40315;BME280;26021;45.640;11.302;2022-12-24T05:01:06;98654.19;;;5.82;100.00
40315;BME280;26021;45.640;11.302;2022-12-24T05:03:32;98642.53;;;5.75;100.00
40315;BME280;26021;45.640;11.302;2022-12-24T05:06:05;98655.88;;;5.83;100.00
40315;BME280;26021;45.640;11.302;2022-12-24T05:08:31;98574.38;;;5.22;100.00
40315;BME280;26021;45.640;11.302;2022-12-24T05:10:58;98667.69;;;5.71;100.00
40315;BME280;26021;45.640;11.302;2022-12-24T05:13:25;98667.00;;;5.69;100.00
40315;BME280;26021;45.640;11.302;2022-12-24T05:15:50;98668.47;;;5.81;100.00
40315;BME280;26021;45.640;11.302;2022-12-24T05:18:16;98658.31;;;5.77;100.00
40315;BME280;26021;45.640;11.302;2022-12-24T05:20:42;98681.19;;;5.78;100.00
40315;BME280;26021;45.640;11.302;2022-12-24T05:23:34;98632.22;;;5.54;100.00
40315;BME280;26021;45.640;11.302;2022-12-24T05:26:32;98657.09;;;5.71;100.00
40315;BME280;26021;45.640;11.302;2022-12-24T05:28:59;98682.78;;;5.88;100.00
40315;BME280;26021;45.640;11.302;2022-12-24T05:31:27;98669.19;;;6.01;100.00
40315;BME280;26021;45.640;11.302;2022-12-24T05:33:53;98655.16;;;6.09;100.00
40315;BME280;26021;45.640;11.302;2022-12-24T05:36:20;98667.44;;;5.92;100.00
40315;BME280;26021;45.640;11.302;2022-12-24T05:38:46;98665.88;;;5.99;100.00
40315;BME280;26021;45.640;11.302;2022-12-24T05:41:11;98663.59;;;6.04;100.00
40315;BME280;26021;45.640;11.302;2022-12-24T05:43:37;98656.75;;;6.01;100.00
40315;BME280;26021;45.640;11.302;2022-12-24T05:46:08;98664.50;;;5.95;100.00
40315;BME280;26021;45.640;11.302;2022-12-24T05:48:34;98658.59;;;6.01;100.00
40315;BME280;26021;45.640;11.302;2022-12-24T05:51:05;98653.53;;;6.33;100.00
40315;BME280;26021;45.640;11.302;2022-12-24T05:53:31;98586.72;;;5.85;100.00
40315;BME280;26021;45.640;11.302;2022-12-24T05:56:15;98650.16;;;6.05;100.00
40315;BME280;26021;45.640;11.302;2022-12-24T05:58:42;98656.38;;;6.14;100.00
40315;BME280;26021;45.640;11.302;2022-12-24T06:01:08;98656.91;;;6.00;100.00
40315;BME280;26021;45.640;11.302;2022-12-24T06:03:35;98655.94;;;6.01;100.00
40315;BME280;26021;45.640;11.302;2022-12-24T06:08:29;98662.91;;;6.02;100.00
40315;BME280;26021;45.640;11.302;2022-12-24T06:10:56;98602.94;;;5.64;100.00
40315;BME280;26021;45.640;11.302;2022-12-24T06:13:23;98651.34;;;5.93;100.00
40315;BME280;26021;45.640;11.302;2022-12-24T06:15:49;98667.53;;;6.18;100.00
40315;BME280;26021;45.640;11.302;2022-12-24T06:18:15;98675.56;;;6.26;100.00
40315;BME280;26021;45.640;11.302;2022-12-24T06:20:40;98666.69;;;5.99;100.00
40315;BME280;26021;45.640;11.302;2022-12-24T06:23:06;98672.09;;;6.08;100.00
40315;BME280;26021;45.640;11.302;2022-12-24T06:25:31;98678.22;;;6.08;100.00
40315;BME280;26021;45.640;11.302;2022-12-24T06:27:57;98681.94;;;6.15;100.00
40315;BME280;26021;45.640;11.302;2022-12-24T06:30:22;98684.81;;;6.04;100.00
40315;BME280;26021;45.640;11.302;2022-12-24T06:32:48;98616.59;;;5.87;100.00
40315;BME280;26021;45.640;11.302;2022-12-24T06:35:14;98622.06;;;5.85;100.00
40315;BME280;26021;45.640;11.302;2022-12-24T06:37:39;98677.63;;;5.96;100.00
40315;BME280;26021;45.640;11.302;2022-12-24T06:40:05;98672.75;;;6.10;100.00
40315;BME280;26021;45.640;11.302;2022-12-24T06:42:31;98663.81;;;6.11;100.00
40315;BME280;26021;45.640;11.302;2022-12-24T06:44:56;98669.81;;;6.13;100.00
40315;BME280;26021;45.640;11.302;2022-12-24T06:47:22;98654.34;;;6.08;100.00
40315;BME280;26021;45.640;11.302;2022-12-24T06:49:47;98678.06;;;6.10;100.00
40315;BME280;26021;45.640;11.302;2022-12-24T06:52:13;98673.00;;;6.16;100.00
40315;BME280;26021;45.640;11.302;2022-12-24T06:54:38;98678.22;;;6.08;100.00
40315;BME280;26021;45.640;11.302;2022-12-24T06:57:04;98683.38;;;6.10;100.00
40315;BME280;26021;45.640;11.302;2022-12-24T06:59:31;98681.31;;;6.21;100.00
40315;BME280;26021;45.640;11.302;2022-12-24T07:01:56;98676.28;;;6.36;100.00
40315;BME280;26021;45.640;11.302;2022-12-24T07:04:22;98679.50;;;6.22;100.00
40315;BME280;26021;45.640;11.302;2022-12-24T07:06:47;98682.63;;;6.17;100.00
40315;BME280;26021;45.640;11.302;2022-12-24T07:09:13;98687.00;;;6.26;100.00
40315;BME280;26021;45.640;11.302;2022-12-24T07:11:38;98689.28;;;6.21;100.00
40315;BME280;26021;45.640;11.302;2022-12-24T07:14:04;98687.47;;;6.22;100.00
40315;BME280;26021;45.640;11.302;2022-12-24T07:16:29;98506.25;;;5.23;100.00
40315;BME280;26021;45.640;11.302;2022-12-24T07:18:55;98671.00;;;6.18;100.00
40315;BME280;26021;45.640;11.302;2022-12-24T07:21:20;98624.56;;;5.87;100.00
40315;BME280;26021;45.640;11.302;2022-12-24T07:23:46;98690.63;;;6.43;100.00
40315;BME280;26021;45.640;11.302;2022-12-24T07:26:11;98711.88;;;6.43;100.00
40315;BME280;26021;45.640;11.302;2022-12-24T07:28:37;98665.97;;;6.33;100.00
40315;BME280;26021;45.640;11.302;2022-12-24T07:31:02;98704.88;;;6.60;100.00
40315;BME280;26021;45.640;11.302;2022-12-24T07:33:28;98698.03;;;6.57;100.00
40315;BME280;26021;45.640;11.302;2022-12-24T07:36:01;98705.88;;;6.41;100.00
40315;BME280;26021;45.640;11.302;2022-12-24T07:38:29;98705.22;;;6.39;100.00
40315;BME280;26021;45.640;11.302;2022-12-24T07:40:55;98705.53;;;6.36;100.00
40315;BME280;26021;45.640;11.302;2022-12-24T07:43:20;98701.72;;;6.38;100.00
40315;BME280;26021;45.640;11.302;2022-12-24T07:45:46;98707.41;;;6.44;100.00
40315;BME280;26021;45.640;11.302;2022-12-24T07:48:11;98704.31;;;6.30;100.00
40315;BME280;26021;45.640;11.302;2022-12-24T07:50:37;98711.72;;;6.45;100.00
40315;BME280;26021;45.640;11.302;2022-12-24T07:53:02;98711.31;;;6.57;100.00
40315;BME280;26021;45.640;11.302;2022-12-24T07:55:28;98722.88;;;6.48;100.00
40315;BME280;26021;45.640;11.302;2022-12-24T07:57:53;98720.59;;;6.53;100.00
40315;BME280;26021;45.640;11.302;2022-12-24T08:00:19;98727.72;;;6.53;100.00
40315;BME280;26021;45.640;11.302;2022-12-24T08:02:45;98722.88;;;6.48;100.00
40315;BME280;26021;45.640;11.302;2022-12-24T08:05:10;98741.47;;;6.48;100.00
40315;BME280;26021;45.640;11.302;2022-12-24T08:07:36;98740.41;;;6.77;100.00
40315;BME280;26021;45.640;11.302;2022-12-24T08:10:01;98741.59;;;6.82;100.00
40315;BME280;26021;45.640;11.302;2022-12-24T08:12:27;98706.25;;;6.46;100.00
40315;BME280;26021;45.640;11.302;2022-12-24T08:14:52;98730.59;;;6.59;100.00
40315;BME280;26021;45.640;11.302;2022-12-24T08:17:18;98679.78;;;6.36;100.00
40315;BME280;26021;45.640;11.302;2022-12-24T08:19:43;98750.56;;;6.63;100.00
40315;BME280;26021;45.640;11.302;2022-12-24T08:22:09;98751.88;;;6.77;100.00
40315;BME280;26021;45.640;11.302;2022-12-24T08:24:34;98708.47;;;6.33;100.00
40315;BME280;26021;45.640;11.302;2022-12-24T08:27:01;98777.47;;;6.78;100.00
40315;BME280;26021;45.640;11.302;2022-12-24T08:29:27;98787.63;;;6.83;100.00
40315;BME280;26021;45.640;11.302;2022-12-24T08:31:52;98796.09;;;7.04;100.00
40315;BME280;26021;45.640;11.302;2022-12-24T08:34:18;98800.56;;;7.04;100.00
40315;BME280;26021;45.640;11.302;2022-12-24T08:36:43;98812.34;;;7.01;100.00
40315;BME280;26021;45.640;11.302;2022-12-24T08:39:09;98828.06;;;7.12;100.00
40315;BME280;26021;45.640;11.302;2022-12-24T08:41:35;98830.25;;;7.17;100.00
40315;BME280;26021;45.640;11.302;2022-12-24T08:44:00;98836.78;;;7.22;100.00
40315;BME280;26021;45.640;11.302;2022-12-24T08:46:26;98830.88;;;7.11;100.00
40315;BME280;26021;45.640;11.302;2022-12-24T08:48:52;98803.25;;;6.86;100.00
40315;BME280;26021;45.640;11.302;2022-12-24T08:51:17;98823.38;;;6.88;100.00
40315;BME280;26021;45.640;11.302;2022-12-24T08:53:44;98829.84;;;6.86;100.00
40315;BME280;26021;45.640;11.302;2022-12-24T08:56:10;98832.13;;;7.24;100.00
40315;BME280;26021;45.640;11.302;2022-12-24T08:58:36;98834.09;;;7.22;100.00
40315;BME280;26021;45.640;11.302;2022-12-24T09:01:12;98877.63;;;7.39;100.00
40315;BME280;26021;45.640;11.302;2022-12-24T09:03:38;98833.50;;;7.54;100.00
40315;BME280;26021;45.640;11.302;2022-12-24T09:06:04;98848.38;;;7.65;100.00
40315;BME280;26021;45.640;11.302;2022-12-24T09:08:30;98765.84;;;7.05;100.00
40315;BME280;26021;45.640;11.302;2022-12-24T09:11:11;98826.50;;;7.53;100.00
40315;BME280;26021;45.640;11.302;2022-12-24T09:13:37;98847.88;;;7.70;100.00
40315;BME280;26021;45.640;11.302;2022-12-24T09:16:03;98833.34;;;7.56;100.00
40315;BME280;26021;45.640;11.302;2022-12-24T09:18:29;98833.78;;;7.43;100.00
40315;BME280;26021;45.640;11.302;2022-12-24T09:20:59;98801.59;;;7.37;100.00
40315;BME280;26021;45.640;11.302;2022-12-24T09:23:25;98841.75;;;7.43;100.00
40315;BME280;26021;45.640;11.302;2022-12-24T09:25:51;98879.44;;;7.56;100.00
40315;BME280;26021;45.640;11.302;2022-12-24T09:28:16;98875.03;;;7.73;100.00
40315;BME280;26021;45.640;11.302;2022-12-24T09:30:42;98869.53;;;7.75;100.00
40315;BME280;26021;45.640;11.302;2022-12-24T09:33:07;98881.88;;;7.76;100.00
40315;BME280;26021;45.640;11.302;2022-12-24T09:35:33;98885.25;;;7.86;100.00
40315;BME280;26021;45.640;11.302;2022-12-24T09:37:58;98850.00;;;7.92;100.00
40315;BME280;26021;45.640;11.302;2022-12-24T09:40:37;98843.88;;;8.08;100.00
40315;BME280;26021;45.640;11.302;2022-12-24T09:43:12;98872.41;;;7.81;100.00
40315;BME280;26021;45.640;11.302;2022-12-24T09:45:43;98882.22;;;7.81;100.00
40315;BME280;26021;45.640;11.302;2022-12-24T09:50:41;98881.13;;;7.91;100.00
40315;BME280;26021;45.640;11.302;2022-12-24T09:56:02;98828.72;;;7.40;100.00
40315;BME280;26021;45.640;11.302;2022-12-24T09:58:50;98884.88;;;8.15;100.00
40315;BME280;26021;45.640;11.302;2022-12-24T10:01:17;98837.31;;;7.86;100.00
40315;BME280;26021;45.640;11.302;2022-12-24T10:03:43;98877.53;;;8.09;100.00
40315;BME280;26021;45.640;11.302;2022-12-24T10:06:16;98890.44;;;8.21;100.00
40315;BME280;26021;45.640;11.302;2022-12-24T10:11:27;98866.03;;;8.08;100.00
40315;BME280;26021;45.640;11.302;2022-12-24T10:22:11;98866.41;;;8.55;100.00
40315;BME280;26021;45.640;11.302;2022-12-24T10:27:54;98836.59;;;8.68;100.00
40315;BME280;26021;45.640;11.302;2022-12-24T10:30:21;98820.25;;;8.71;100.00
40315;BME280;26021;45.640;11.302;2022-12-24T10:32:50;98829.44;;;8.77;100.00
40315;BME280;26021;45.640;11.302;2022-12-24T10:37:42;98829.25;;;8.62;100.00
40315;BME280;26021;45.640;11.302;2022-12-24T10:40:41;98847.09;;;8.62;100.00
40315;BME280;26021;45.640;11.302;2022-12-24T10:43:19;98835.41;;;8.46;100.00
40315;BME280;26021;45.640;11.302;2022-12-24T10:45:50;98874.56;;;8.62;100.00
40315;BME280;26021;45.640;11.302;2022-12-24T10:53:30;98874.59;;;8.70;100.00
40315;BME280;26021;45.640;11.302;2022-12-24T10:56:09;98865.41;;;8.65;100.00
40315;BME280;26021;45.640;11.302;2022-12-24T10:58:35;98890.25;;;8.65;100.00
40315;BME280;26021;45.640;11.302;2022-12-24T11:01:02;98894.41;;;8.59;100.00
40315;BME280;26021;45.640;11.302;2022-12-24T11:03:33;98900.91;;;8.57;100.00
40315;BME280;26021;45.640;11.302;2022-12-24T11:06:06;98900.50;;;9.02;100.00
40315;BME280;26021;45.640;11.302;2022-12-24T11:08:38;98893.81;;;9.06;100.00
40315;BME280;26021;45.640;11.302;2022-12-24T11:11:12;98890.66;;;8.95;100.00
40315;BME280;26021;45.640;11.302;2022-12-24T11:14:00;98892.31;;;9.04;100.00
40315;BME280;26021;45.640;11.302;2022-12-24T11:16:33;98885.50;;;9.17;100.00
40315;BME280;26021;45.640;11.302;2022-12-24T11:19:02;98886.16;;;9.19;100.00
40315;BME280;26021;45.640;11.302;2022-12-24T11:21:37;98881.97;;;9.01;100.00
40315;BME280;26021;45.640;11.302;2022-12-24T11:26:40;98887.50;;;9.15;100.00
40315;BME280;26021;45.640;11.302;2022-12-24T11:29:22;98890.50;;;8.96;100.00
40315;BME280;26021;45.640;11.302;2022-12-24T11:31:51;98886.00;;;9.21;100.00
40315;BME280;26021;45.640;11.302;2022-12-24T11:36:49;98878.94;;;8.87;100.00
40315;BME280;26021;45.640;11.302;2022-12-24T11:39:20;98878.31;;;9.10;100.00
40315;BME280;26021;45.640;11.302;2022-12-24T11:41:47;98872.97;;;9.18;100.00
40315;BME280;26021;45.640;11.302;2022-12-24T11:44:24;98868.81;;;8.99;100.00
40315;BME280;26021;45.640;11.302;2022-12-24T11:46:50;98865.16;;;8.92;100.00
40315;BME280;26021;45.640;11.302;2022-12-24T11:49:30;98860.91;;;8.57;100.00
40315;BME280;26021;45.640;11.302;2022-12-24T11:54:30;98846.56;;;8.42;100.00
40315;BME280;26021;45.640;11.302;2022-12-24T11:57:00;98852.75;;;8.58;100.00
40315;BME280;26021;45.640;11.302;2022-12-24T11:59:44;98795.56;;;8.37;100.00
40315;BME280;26021;45.640;11.302;2022-12-24T12:02:24;98835.47;;;9.03;100.00
40315;BME280;26021;45.640;11.302;2022-12-24T12:04:56;98830.47;;;8.92;100.00
40315;BME280;26021;45.640;11.302;2022-12-24T12:07:32;98828.63;;;8.93;100.00
40315;BME280;26021;45.640;11.302;2022-12-24T12:10:04;98847.25;;;8.76;100.00
40315;BME280;26021;45.640;11.302;2022-12-24T12:12:35;98797.09;;;8.55;100.00
40315;BME280;26021;45.640;11.302;2022-12-24T12:15:16;98856.94;;;8.77;100.00
40315;BME280;26021;45.640;11.302;2022-12-24T12:18:05;98866.94;;;8.83;100.00
40315;BME280;26021;45.640;11.302;2022-12-24T12:20:37;98864.81;;;8.95;100.00
40315;BME280;26021;45.640;11.302;2022-12-24T12:23:17;98871.28;;;8.84;100.00
40315;BME280;26021;45.640;11.302;2022-12-24T12:25:46;98880.81;;;8.95;100.00
40315;BME280;26021;45.640;11.302;2022-12-24T12:28:42;98852.59;;;8.84;100.00
40315;BME280;26021;45.640;11.302;2022-12-24T12:31:26;98840.13;;;9.09;100.00
40315;BME280;26021;45.640;11.302;2022-12-24T12:36:45;98838.63;;;9.15;100.00
40315;BME280;26021;45.640;11.302;2022-12-24T12:39:11;98837.09;;;9.29;100.00
40315;BME280;26021;45.640;11.302;2022-12-24T12:57:43;98892.66;;;8.93;100.00
40315;BME280;26021;45.640;11.302;2022-12-24T13:00:14;98841.75;;;8.70;100.00
40315;BME280;26021;45.640;11.302;2022-12-24T13:21:55;98826.25;;;8.73;100.00
40315;BME280;26021;45.640;11.302;2022-12-24T13:24:26;98860.97;;;8.98;100.00
40315;BME280;26021;45.640;11.302;2022-12-24T13:27:04;98873.81;;;8.94;100.00
40315;BME280;26021;45.640;11.302;2022-12-24T13:35:03;98861.47;;;9.26;100.00
40315;BME280;26021;45.640;11.302;2022-12-24T13:37:48;98682.78;;;8.20;100.00
40315;BME280;26021;45.640;11.302;2022-12-24T13:40:27;98856.63;;;9.13;100.00
40315;BME280;26021;45.640;11.302;2022-12-24T13:53:22;98870.47;;;9.00;100.00
40315;BME280;26021;45.640;11.302;2022-12-24T13:58:47;98882.81;;;9.17;100.00
40315;BME280;26021;45.640;11.302;2022-12-24T14:01:16;98886.81;;;9.13;100.00
40315;BME280;26021;45.640;11.302;2022-12-24T14:03:57;98810.94;;;8.75;100.00
40315;BME280;26021;45.640;11.302;2022-12-24T14:06:27;98833.09;;;8.68;100.00
40315;BME280;26021;45.640;11.302;2022-12-24T14:08:56;98898.28;;;8.89;100.00
40315;BME280;26021;45.640;11.302;2022-12-24T14:11:25;98900.66;;;8.93;100.00
40315;BME280;26021;45.640;11.302;2022-12-24T14:14:10;98838.41;;;8.51;100.00
40315;BME280;26021;45.640;11.302;2022-12-24T14:16:50;98887.88;;;8.54;100.00
40315;BME280;26021;45.640;11.302;2022-12-24T14:19:26;98894.59;;;8.66;100.00
40315;BME280;26021;45.640;11.302;2022-12-24T14:22:10;98869.59;;;8.67;100.00
40315;BME280;26021;45.640;11.302;2022-12-24T14:24:43;98888.41;;;8.66;100.00
40315;BME280;26021;45.640;11.302;2022-12-24T14:32:14;98901.91;;;8.64;100.00
40315;BME280;26021;45.640;11.302;2022-12-24T14:34:40;98887.94;;;8.78;100.00
40315;BME280;26021;45.640;11.302;2022-12-24T14:37:09;98901.56;;;8.59;100.00
40315;BME280;26021;45.640;11.302;2022-12-24T14:39:45;98865.63;;;8.21;100.00
40315;BME280;26021;45.640;11.302;2022-12-24T14:50:58;98925.59;;;7.99;100.00
40315;BME280;26021;45.640;11.302;2022-12-24T14:56:21;98914.66;;;7.76;100.00
40315;BME280;26021;45.640;11.302;2022-12-24T14:58:47;98940.81;;;7.81;100.00
40315;BME280;26021;45.640;11.302;2022-12-24T15:01:25;98939.25;;;7.70;100.00
40315;BME280;26021;45.640;11.302;2022-12-24T15:06:37;98956.72;;;7.73;100.00
40315;BME280;26021;45.640;11.302;2022-12-24T15:09:05;98953.47;;;7.61;100.00
40315;BME280;26021;45.640;11.302;2022-12-24T15:11:36;98967.53;;;7.71;100.00
40315;BME280;26021;45.640;11.302;2022-12-24T15:14:02;98965.81;;;7.62;100.00
40315;BME280;26021;45.640;11.302;2022-12-24T15:16:32;98967.25;;;7.56;100.00